Time;durP1;ratioP1;P1;durP2;ratioP2;P2;SDS_P1;SDS_P2;PMS_P1;PMS_P2;Temp;Humidity;BMP_temperature;BMP_pressure;BME280_temperature;BME280_humidity;BME280_pressure;Samples;Min_cycle;Max_cycle;Signal;HPM_P1;HPM_P2
2023/06/23 00:01:59;;;;;;;12.50;11.30;;;18.90;99.90;;;;;;5099935;28;20471;-69
2023/06/23 00:04:26;;;;;;;14.60;11.07;;;19.00;99.90;;;;;;5099423;28;20440;-69
2023/06/23 00:06:53;;;;;;;14.20;10.70;;;18.90;99.90;;;;;;5099735;28;20542;-69
2023/06/23 00:09:22;;;;;;;13.80;12.50;;;18.90;99.90;;;;;;5099845;28;20448;-69
2023/06/23 00:11:49;;;;;;;16.53;10.47;;;18.80;99.90;;;;;;5099730;28;20514;-68
2023/06/23 00:14:15;;;;;;;12.83;11.37;;;18.80;99.90;;;;;;5099475;28;20474;-69
2023/06/23 00:16:44;;;;;;;12.57;11.10;;;18.80;99.90;;;;;;5099087;28;20440;-69
2023/06/23 00:19:11;;;;;;;12.23;11.10;;;18.80;99.90;;;;;;5099506;28;20459;-69
2023/06/23 00:21:38;;;;;;;12.10;10.60;;;18.90;99.90;;;;;;5098753;28;20822;-68
2023/06/23 00:24:06;;;;;;;12.17;10.23;;;18.90;99.90;;;;;;5099329;28;20539;-69
2023/06/23 00:26:34;;;;;;;12.00;10.10;;;18.90;99.90;;;;;;5099499;28;20452;-69
2023/06/23 00:29:00;;;;;;;12.00;10.10;;;18.90;99.90;;;;;;5097950;28;20452;-69
2023/06/23 00:31:27;;;;;;;12.97;9.70;;;18.90;99.90;;;;;;5098915;28;20533;-69
2023/06/23 00:33:55;;;;;;;11.13;9.70;;;18.80;99.90;;;;;;5099286;28;20471;-69
2023/06/23 00:36:22;;;;;;;11.97;9.67;;;18.80;99.90;;;;;;5099715;28;20448;-69
2023/06/23 00:38:49;;;;;;;13.70;9.90;;;18.80;99.90;;;;;;5104290;28;20929;-69
2023/06/23 00:41:15;;;;;;;13.10;10.33;;;18.70;99.90;;;;;;5099855;28;20440;-68
2023/06/23 00:43:49;;;;;;;11.33;10.23;;;18.70;99.90;;;;;;5096801;28;20502;-69
2023/06/23 00:46:18;;;;;;;10.77;8.67;;;18.70;99.90;;;;;;5098549;28;20443;-69
2023/06/23 00:48:45;;;;;;;11.90;8.90;;;18.70;99.90;;;;;;5099824;28;20444;-69
2023/06/23 00:51:15;;;;;;;9.20;8.20;;;18.70;99.90;;;;;;5097452;28;20476;-69
2023/06/23 00:53:46;;;;;;;9.93;8.00;;;18.80;99.90;;;;;;5098385;28;20464;-69
2023/06/23 00:56:13;;;;;;;9.57;8.60;;;18.80;99.90;;;;;;5109879;28;20924;-69
2023/06/23 00:58:41;;;;;;;13.57;7.67;;;18.80;99.90;;;;;;5100845;28;20452;-69
2023/06/23 01:01:08;;;;;;;12.20;7.70;;;18.80;99.90;;;;;;5101132;28;20444;-69
2023/06/23 01:03:35;;;;;;;8.00;7.10;;;18.80;99.90;;;;;;5099310;28;20845;-69
2023/06/23 01:06:11;;;;;;;8.60;7.70;;;18.80;99.90;;;;;;5098405;28;20534;-70
2023/06/23 01:08:49;;;;;;;8.97;7.20;;;18.90;99.90;;;;;;5096917;28;20432;-70
2023/06/23 01:11:22;;;;;;;12.03;7.87;;;18.90;99.90;;;;;;5096464;28;20463;-70
2023/06/23 01:13:53;;;;;;;12.37;7.30;;;18.80;99.90;;;;;;5095708;28;20459;-69
2023/06/23 01:16:30;;;;;;;12.63;6.83;;;18.80;99.90;;;;;;5097582;28;20439;-69
2023/06/23 01:19:09;;;;;;;11.17;7.27;;;18.80;99.90;;;;;;5100375;28;20514;-68
2023/06/23 01:21:56;;;;;;;7.30;6.40;;;18.80;99.90;;;;;;5100757;28;20424;-68
2023/06/23 01:24:38;;;;;;;10.60;7.23;;;18.70;99.90;;;;;;5102174;28;20436;-69
2023/06/23 01:27:29;;;;;;;8.60;6.20;;;18.70;99.90;;;;;;5101947;28;20424;-69
2023/06/23 01:30:01;;;;;;;9.60;7.20;;;18.70;99.90;;;;;;5100561;28;20428;-69
2023/06/23 01:32:35;;;;;;;8.70;7.30;;;18.60;99.90;;;;;;5099311;28;20491;-69
2023/06/23 01:35:07;;;;;;;15.20;8.50;;;18.60;99.90;;;;;;5099672;28;20428;-69
2023/06/23 01:37:38;;;;;;;10.80;8.07;;;18.50;99.90;;;;;;5097811;28;20961;-69
2023/06/23 01:40:10;;;;;;;8.87;7.73;;;18.40;99.90;;;;;;5097203;28;20436;-69
2023/06/23 01:42:40;;;;;;;9.83;8.07;;;18.40;99.90;;;;;;5096845;28;20468;-69
2023/06/23 01:45:13;;;;;;;11.03;7.40;;;18.50;99.90;;;;;;5097464;28;20478;-69
2023/06/23 01:47:43;;;;;;;9.27;7.37;;;18.40;99.90;;;;;;5097332;28;20479;-69
2023/06/23 01:50:12;;;;;;;12.20;9.73;;;18.40;99.90;;;;;;5098165;28;20448;-69
2023/06/23 01:52:40;;;;;;;15.07;9.27;;;18.40;99.90;;;;;;5097819;28;20523;-68
2023/06/23 01:55:10;;;;;;;13.47;9.20;;;18.40;99.90;;;;;;5098022;28;20448;-69
2023/06/23 01:57:39;;;;;;;12.97;9.43;;;18.40;99.90;;;;;;5097893;28;20840;-69
2023/06/23 02:00:13;;;;;;;11.87;8.80;;;18.40;99.90;;;;;;5097851;28;20447;-69
2023/06/23 02:02:41;;;;;;;11.80;9.70;;;18.40;99.90;;;;;;5098429;28;20506;-69
2023/06/23 02:05:11;;;;;;;10.87;9.00;;;18.50;99.90;;;;;;5097971;28;20454;-69
2023/06/23 02:07:40;;;;;;;15.70;9.97;;;18.50;99.90;;;;;;5097571;28;20452;-69
2023/06/23 02:10:08;;;;;;;10.30;8.77;;;18.40;99.90;;;;;;5095647;28;20522;-68
2023/06/23 02:12:35;;;;;;;12.83;8.90;;;18.50;99.90;;;;;;5093668;28;20483;-69
2023/06/23 02:15:04;;;;;;;16.33;9.93;;;18.40;99.90;;;;;;5093846;28;20455;-69
2023/06/23 02:17:32;;;;;;;18.77;9.10;;;18.40;99.90;;;;;;5091898;28;20505;-69
2023/06/23 02:20:00;;;;;;;12.00;8.90;;;18.50;99.90;;;;;;5092261;28;20472;-68
2023/06/23 02:22:28;;;;;;;12.00;9.00;;;18.50;99.90;;;;;;5093507;28;20460;-68
2023/06/23 02:24:56;;;;;;;12.67;9.13;;;18.40;99.90;;;;;;5093544;28;20459;-69
2023/06/23 02:27:24;;;;;;;10.30;9.30;;;18.40;99.90;;;;;;5093378;28;20452;-69
2023/06/23 02:29:52;;;;;;;11.30;9.50;;;18.30;99.90;;;;;;5097180;28;20454;-69
2023/06/23 02:32:19;;;;;;;12.60;9.00;;;18.30;99.90;;;;;;5097021;28;20589;-68
2023/06/23 02:34:47;;;;;;;14.80;10.10;;;18.20;99.90;;;;;;5096854;28;20852;-69
2023/06/23 02:37:19;;;;;;;10.93;9.47;;;18.20;99.90;;;;;;5096880;28;20492;-69
2023/06/23 02:39:51;;;;;;;12.10;10.43;;;18.20;99.90;;;;;;5097069;28;20432;-68
2023/06/23 02:42:22;;;;;;;12.90;8.97;;;18.20;99.90;;;;;;5096908;28;20791;-68
2023/06/23 02:44:59;;;;;;;14.20;10.10;;;18.20;99.90;;;;;;5096753;28;20447;-68
2023/06/23 02:47:28;;;;;;;11.27;9.20;;;18.20;99.90;;;;;;5096891;28;20809;-69
2023/06/23 02:50:02;;;;;;;12.83;10.93;;;18.20;99.90;;;;;;5096708;28;20444;-68
2023/06/23 02:52:33;;;;;;;14.57;10.87;;;18.30;99.90;;;;;;5096634;28;20987;-68
2023/06/23 02:55:02;;;;;;;16.60;12.10;;;18.30;99.90;;;;;;5096590;28;20523;-68
2023/06/23 02:57:31;;;;;;;16.53;10.97;;;18.30;99.90;;;;;;5094910;28;20448;-68
2023/06/23 03:00:05;;;;;;;12.10;10.80;;;18.30;99.90;;;;;;5096503;28;20447;-69
2023/06/23 03:02:34;;;;;;;13.20;10.53;;;18.20;99.90;;;;;;5096373;28;20464;-68
2023/06/23 03:05:04;;;;;;;20.03;10.50;;;18.20;99.90;;;;;;5096064;28;20440;-69
2023/06/23 03:07:32;;;;;;;14.90;10.83;;;18.20;99.90;;;;;;5105965;28;20501;-69
2023/06/23 03:09:59;;;;;;;13.67;10.60;;;18.10;99.90;;;;;;5101104;28;20485;-69
2023/06/23 03:12:26;;;;;;;15.77;12.07;;;18.10;99.90;;;;;;5098353;28;20488;-68
2023/06/23 03:14:53;;;;;;;22.27;12.20;;;18.10;99.90;;;;;;5096626;28;20448;-69
2023/06/23 03:17:26;;;;;;;19.40;13.53;;;18.10;99.90;;;;;;5096026;28;20444;-70
2023/06/23 03:20:01;;;;;;;14.80;13.10;;;18.10;99.90;;;;;;5096596;28;20428;-69
2023/06/23 03:22:36;;;;;;;18.03;13.83;;;18.00;99.90;;;;;;5094979;28;21014;-69
2023/06/23 03:25:09;;;;;;;17.60;13.90;;;18.00;99.90;;;;;;5096371;28;20459;-69
2023/06/23 03:27:39;;;;;;;18.77;12.97;;;18.00;99.90;;;;;;5095751;28;20892;-69
2023/06/23 03:30:13;;;;;;;18.37;12.83;;;18.00;99.90;;;;;;5095885;28;20439;-69
2023/06/23 03:32:44;;;;;;;18.67;14.90;;;18.00;99.90;;;;;;5096021;28;20537;-68
2023/06/23 03:35:14;;;;;;;17.27;14.47;;;17.90;99.90;;;;;;5098619;28;20443;-68
2023/06/23 03:37:49;;;;;;;15.47;13.87;;;18.00;99.90;;;;;;5096627;28;20431;-69
2023/06/23 03:40:19;;;;;;;21.03;13.83;;;18.10;99.90;;;;;;5095949;28;20423;-68
2023/06/23 03:42:51;;;;;;;16.47;14.53;;;18.00;99.90;;;;;;5096289;28;20581;-68
2023/06/23 03:45:21;;;;;;;17.33;13.27;;;18.00;99.90;;;;;;5096912;28;20467;-69
2023/06/23 03:47:51;;;;;;;17.53;15.03;;;18.00;99.90;;;;;;5095636;28;20428;-69
2023/06/23 03:50:21;;;;;;;21.50;16.30;;;18.00;99.90;;;;;;5096268;28;20439;-69
2023/06/23 03:52:50;;;;;;;20.57;15.80;;;18.00;99.90;;;;;;5095566;28;20999;-68
2023/06/23 03:55:20;;;;;;;19.80;17.77;;;18.00;99.90;;;;;;5095741;28;20460;-69
2023/06/23 03:57:49;;;;;;;26.47;16.40;;;18.00;99.90;;;;;;5095762;28;20470;-69
2023/06/23 04:00:19;;;;;;;17.73;15.87;;;18.00;99.90;;;;;;5095358;28;20455;-69
2023/06/23 04:02:47;;;;;;;22.27;16.70;;;18.00;99.90;;;;;;5095152;28;20916;-69
2023/06/23 04:05:15;;;;;;;20.33;16.70;;;18.00;99.90;;;;;;5095199;28;20444;-69
2023/06/23 04:07:44;;;;;;;20.33;17.13;;;18.10;99.90;;;;;;5095229;28;20455;-69
2023/06/23 04:10:15;;;;;;;19.47;17.53;;;18.10;99.90;;;;;;5095163;28;20447;-69
2023/06/23 04:12:43;;;;;;;21.00;15.97;;;18.00;99.90;;;;;;5094679;28;20827;-68
2023/06/23 04:15:11;;;;;;;20.20;16.37;;;18.10;99.90;;;;;;5094983;28;20447;-69
2023/06/23 04:17:42;;;;;;;20.00;17.20;;;18.10;99.90;;;;;;5094738;28;20436;-69
2023/06/23 04:20:10;;;;;;;22.60;17.17;;;18.10;99.90;;;;;;5094535;28;20916;-68
2023/06/23 04:22:40;;;;;;;22.57;16.80;;;18.20;99.90;;;;;;5094819;28;20486;-68
2023/06/23 04:25:09;;;;;;;19.70;16.07;;;18.20;99.90;;;;;;5094726;28;20447;-69
2023/06/23 04:27:39;;;;;;;18.50;16.73;;;18.30;99.90;;;;;;5094448;28;20448;-69
2023/06/23 04:30:09;;;;;;;22.77;17.73;;;18.40;99.90;;;;;;5094573;28;20466;-69
2023/06/23 04:32:37;;;;;;;26.37;19.47;;;18.30;99.90;;;;;;5094508;28;20487;-68
2023/06/23 04:35:05;;;;;;;20.43;17.20;;;18.40;99.90;;;;;;5094666;28;20444;-69
2023/06/23 04:37:39;;;;;;;18.23;16.27;;;18.50;99.90;;;;;;5094464;28;20448;-69
2023/06/23 04:40:10;;;;;;;25.67;17.80;;;18.50;99.90;;;;;;5094449;28;20424;-68
2023/06/23 04:42:46;;;;;;;20.87;17.97;;;18.50;99.90;;;;;;5092908;28;20460;-69
2023/06/23 04:45:17;;;;;;;20.47;18.30;;;18.50;99.90;;;;;;5092914;28;20435;-69
2023/06/23 04:47:47;;;;;;;22.30;17.87;;;18.50;99.90;;;;;;5094539;28;20436;-69
2023/06/23 04:50:16;;;;;;;25.07;19.17;;;18.40;99.90;;;;;;5093560;28;20487;-68
2023/06/23 04:52:48;;;;;;;23.60;17.40;;;18.40;99.90;;;;;;5092619;28;20562;-69
2023/06/23 04:55:19;;;;;;;23.93;18.87;;;18.40;99.90;;;;;;5093619;28;20995;-69
2023/06/23 04:57:50;;;;;;;23.10;20.13;;;18.40;99.90;;;;;;5094090;28;20442;-69
2023/06/23 05:00:22;;;;;;;21.33;19.03;;;18.40;99.90;;;;;;5093609;28;20452;-69
2023/06/23 05:02:51;;;;;;;23.47;19.20;;;18.40;99.90;;;;;;5093909;28;20467;-69
2023/06/23 05:05:21;;;;;;;22.23;19.70;;;18.50;99.90;;;;;;5092744;28;20439;-70
2023/06/23 05:07:51;;;;;;;24.50;21.40;;;18.50;99.90;;;;;;5092896;28;20463;-69
2023/06/23 05:10:19;;;;;;;22.07;19.77;;;18.50;99.90;;;;;;5094088;28;20475;-68
2023/06/23 05:12:50;;;;;;;21.13;18.93;;;18.50;99.90;;;;;;5093521;28;20987;-68
2023/06/23 05:15:18;;;;;;;24.13;20.67;;;18.50;99.90;;;;;;5093882;28;20435;-70
2023/06/23 05:17:47;;;;;;;27.03;20.60;;;18.60;99.90;;;;;;5093610;28;20509;-70
2023/06/23 05:20:16;;;;;;;26.97;19.27;;;18.60;99.90;;;;;;5104763;28;20434;-69
2023/06/23 05:22:46;;;;;;;31.23;20.80;;;18.60;99.90;;;;;;5096817;28;20496;-69
2023/06/23 05:25:15;;;;;;;23.43;20.93;;;18.60;99.90;;;;;;5094428;28;20458;-71
2023/06/23 05:27:44;;;;;;;23.97;20.63;;;18.60;99.90;;;;;;5095244;28;20452;-70
2023/06/23 05:30:16;;;;;;;23.90;21.20;;;18.60;99.90;;;;;;5094080;28;20458;-69
2023/06/23 05:32:43;;;;;;;24.10;21.07;;;18.70;99.90;;;;;;5093934;28;20565;-69
2023/06/23 05:35:12;;;;;;;27.23;19.70;;;18.70;99.90;;;;;;5093144;28;20451;-70
2023/06/23 05:37:41;;;;;;;24.97;20.50;;;18.70;99.90;;;;;;5093471;28;20448;-70
2023/06/23 05:40:12;;;;;;;23.00;20.60;;;18.80;99.90;;;;;;5093684;28;20455;-69
2023/06/23 05:42:39;;;;;;;23.20;20.87;;;18.80;99.90;;;;;;5094145;28;20467;-69
2023/06/23 05:45:07;;;;;;;23.80;21.20;;;18.80;99.90;;;;;;5093738;28;20448;-70
2023/06/23 05:47:41;;;;;;;26.10;22.30;;;18.90;99.90;;;;;;5093685;28;20466;-69
2023/06/23 05:50:16;;;;;;;23.60;20.87;;;18.90;99.90;;;;;;5093585;28;20436;-69
2023/06/23 05:52:52;;;;;;;28.20;22.30;;;19.00;99.90;;;;;;5092393;28;20598;-69
2023/06/23 05:55:20;;;;;;;23.00;20.67;;;19.10;99.90;;;;;;5094471;28;20435;-69
2023/06/23 05:57:49;;;;;;;30.27;22.17;;;19.10;99.90;;;;;;5093398;28;20512;-70
2023/06/23 06:00:19;;;;;;;24.00;21.50;;;19.30;99.90;;;;;;5093560;28;20459;-70
2023/06/23 06:02:50;;;;;;;22.10;19.60;;;19.30;99.90;;;;;;5095869;28;20521;-69
2023/06/23 06:05:19;;;;;;;23.60;21.10;;;19.40;99.90;;;;;;5097601;28;20485;-69
2023/06/23 06:07:46;;;;;;;23.53;21.13;;;19.40;99.90;;;;;;5097088;28;20456;-70
2023/06/23 06:10:15;;;;;;;24.40;22.00;;;19.50;99.90;;;;;;5096958;28;20841;-69
2023/06/23 06:12:45;;;;;;;22.50;20.10;;;19.60;99.90;;;;;;5097367;28;20479;-69
2023/06/23 06:15:14;;;;;;;25.20;22.60;;;19.60;99.90;;;;;;5097186;28;20444;-70
2023/06/23 06:17:42;;;;;;;22.93;20.30;;;19.70;99.90;;;;;;5096944;28;20462;-70
2023/06/23 06:20:14;;;;;;;26.77;22.53;;;19.80;99.90;;;;;;5096892;28;20477;-69
2023/06/23 06:22:45;;;;;;;26.87;23.97;;;19.90;99.90;;;;;;5097153;28;20471;-69
2023/06/23 06:25:14;;;;;;;23.30;21.10;;;20.00;99.90;;;;;;5097233;28;20447;-69
2023/06/23 06:27:43;;;;;;;24.27;22.03;;;20.10;99.90;;;;;;5098521;28;20839;-70
2023/06/23 06:30:11;;;;;;;27.73;21.23;;;20.20;99.90;;;;;;5098469;28;20501;-69
2023/06/23 06:32:42;;;;;;;24.93;22.10;;;20.30;99.90;;;;;;5096825;28;20484;-69
2023/06/23 06:35:12;;;;;;;22.33;19.93;;;20.40;99.90;;;;;;5096912;28;20838;-70
2023/06/23 06:37:42;;;;;;;26.00;21.60;;;20.50;99.90;;;;;;5097134;28;20448;-69
2023/06/23 06:40:12;;;;;;;24.60;22.00;;;20.50;99.90;;;;;;5098023;28;20444;-69
2023/06/23 06:42:39;;;;;;;22.80;20.57;;;20.60;99.90;;;;;;5096705;28;20980;-69
2023/06/23 06:45:07;;;;;;;22.13;19.90;;;20.70;99.90;;;;;;5096520;28;20883;-70
2023/06/23 06:47:40;;;;;;;21.47;19.33;;;20.80;99.60;;;;;;5096839;28;20455;-70
2023/06/23 06:50:10;;;;;;;21.07;19.00;;;20.90;99.50;;;;;;5097020;28;20481;-69
2023/06/23 06:52:39;;;;;;;22.17;19.90;;;21.00;99.20;;;;;;5096574;28;20468;-69
2023/06/23 06:55:09;;;;;;;23.30;20.63;;;21.20;99.30;;;;;;5096797;28;20470;-70
2023/06/23 06:57:36;;;;;;;22.50;20.40;;;21.30;98.50;;;;;;5097006;28;20450;-70
2023/06/23 07:00:05;;;;;;;22.53;20.20;;;21.30;97.80;;;;;;5096760;28;20486;-70
2023/06/23 07:02:33;;;;;;;20.53;17.80;;;21.30;97.70;;;;;;5094910;28;20998;-70
2023/06/23 07:05:01;;;;;;;20.60;18.50;;;21.40;98.40;;;;;;5096414;28;20443;-70
2023/06/23 07:07:30;;;;;;;20.17;18.10;;;21.50;98.20;;;;;;5096432;28;20451;-70
2023/06/23 07:09:57;;;;;;;20.33;18.33;;;21.60;98.30;;;;;;5096079;28;20447;-70
2023/06/23 07:12:24;;;;;;;19.17;17.40;;;21.70;96.60;;;;;;5096301;28;21007;-69
2023/06/23 07:14:51;;;;;;;20.00;18.00;;;21.70;96.10;;;;;;5095272;28;20564;-70
2023/06/23 07:17:18;;;;;;;21.80;19.60;;;21.80;96.90;;;;;;5095573;28;20968;-70
2023/06/23 07:19:44;;;;;;;20.67;18.60;;;21.90;96.50;;;;;;5095637;28;20458;-70
2023/06/23 07:22:11;;;;;;;20.83;18.60;;;21.90;96.70;;;;;;5095643;28;20479;-70
2023/06/23 07:24:39;;;;;;;21.90;19.70;;;22.00;96.70;;;;;;5095766;28;20443;-70
2023/06/23 07:27:08;;;;;;;18.87;17.03;;;22.10;95.80;;;;;;5095727;28;20479;-70
2023/06/23 07:29:34;;;;;;;17.33;15.63;;;22.10;95.60;;;;;;5095974;28;20470;-70
2023/06/23 07:32:01;;;;;;;20.83;18.87;;;22.20;95.80;;;;;;5105895;28;20464;-70
2023/06/23 07:34:28;;;;;;;18.77;16.90;;;22.30;95.20;;;;;;5100522;28;20851;-70
2023/06/23 07:36:55;;;;;;;17.87;16.27;;;22.40;95.70;;;;;;5097296;28;20455;-70
2023/06/23 07:39:22;;;;;;;20.67;18.77;;;22.60;95.90;;;;;;5097074;28;20454;-70
2023/06/23 07:41:50;;;;;;;17.97;16.17;;;22.70;95.40;;;;;;5095887;28;20483;-70
2023/06/23 07:44:17;;;;;;;19.23;17.40;;;22.80;94.80;;;;;;5095592;28;20440;-70
2023/06/23 07:46:44;;;;;;;18.93;17.00;;;22.90;94.00;;;;;;5095367;28;21023;-70
2023/06/23 07:49:10;;;;;;;17.87;16.10;;;22.90;93.10;;;;;;5095976;28;20434;-70
2023/06/23 07:51:37;;;;;;;20.43;18.47;;;22.90;93.30;;;;;;5095627;28;20459;-71
2023/06/23 07:54:04;;;;;;;17.67;15.97;;;22.90;93.20;;;;;;5095245;28;21003;-70
2023/06/23 07:56:31;;;;;;;18.53;16.87;;;22.90;93.60;;;;;;5095205;28;20447;-70
2023/06/23 07:58:59;;;;;;;15.27;13.67;;;23.00;93.70;;;;;;5095303;28;20447;-71
2023/06/23 08:01:26;;;;;;;16.43;14.97;;;23.10;93.20;;;;;;5094809;28;20941;-71
2023/06/23 08:03:53;;;;;;;17.80;16.00;;;23.30;93.20;;;;;;5093949;28;20464;-70
2023/06/23 08:06:23;;;;;;;18.17;16.27;;;23.40;92.90;;;;;;5095100;28;20458;-71
2023/06/23 08:08:50;;;;;;;17.00;15.40;;;23.60;93.00;;;;;;5094881;28;20919;-71
2023/06/23 08:11:17;;;;;;;13.33;12.10;;;23.80;92.20;;;;;;5095206;28;20452;-70
2023/06/23 08:13:44;;;;;;;16.23;14.63;;;24.10;92.60;;;;;;5094951;28;20487;-70
2023/06/23 08:16:12;;;;;;;15.13;13.70;;;24.50;91.90;;;;;;5094914;28;20448;-71
2023/06/23 08:18:38;;;;;;;15.57;14.00;;;24.80;91.00;;;;;;5094447;28;20961;-70
2023/06/23 08:21:05;;;;;;;12.83;11.73;;;25.10;88.10;;;;;;5094914;28;20454;-71
2023/06/23 08:23:32;;;;;;;14.10;12.60;;;25.30;87.20;;;;;;5094441;28;20464;-70
2023/06/23 08:25:59;;;;;;;12.63;11.43;;;25.60;85.70;;;;;;5092639;28;20535;-71
2023/06/23 08:28:26;;;;;;;12.47;11.17;;;26.00;86.40;;;;;;5094767;28;20451;-71
2023/06/23 08:30:52;;;;;;;12.80;11.60;;;26.20;84.50;;;;;;5094643;28;20428;-71
2023/06/23 08:33:20;;;;;;;14.03;12.70;;;26.50;82.50;;;;;;5094666;28;20484;-70
2023/06/23 08:35:47;;;;;;;12.67;11.50;;;26.70;77.60;;;;;;5094748;28;20435;-71
2023/06/23 08:38:15;;;;;;;12.73;11.63;;;26.90;77.60;;;;;;5094530;28;20436;-71
2023/06/23 08:40:42;;;;;;;14.10;12.80;;;26.90;73.90;;;;;;5094160;28;20455;-70
2023/06/23 08:43:10;;;;;;;13.80;12.40;;;26.80;75.20;;;;;;5094594;28;20472;-71
2023/06/23 08:45:41;;;;;;;13.03;11.80;;;26.70;73.30;;;;;;5076731;28;20447;-71
2023/06/23 08:48:09;;;;;;;13.50;12.20;;;26.60;74.70;;;;;;5094117;28;20514;-71
2023/06/23 08:50:37;;;;;;;14.27;12.80;;;26.60;75.90;;;;;;5092900;28;20439;-70
2023/06/23 08:53:05;;;;;;;13.30;12.20;;;26.80;74.60;;;;;;5094069;28;20463;-70
2023/06/23 08:55:33;;;;;;;12.07;11.00;;;26.80;73.10;;;;;;5094240;28;20448;-71
2023/06/23 08:58:01;;;;;;;11.67;10.67;;;26.90;75.00;;;;;;5094182;28;20451;-71
2023/06/23 09:00:28;;;;;;;11.47;9.47;;;27.10;71.50;;;;;;5094179;28;20443;-71
2023/06/23 09:02:55;;;;;;;11.70;9.43;;;27.30;71.80;;;;;;5093890;28;20508;-70
2023/06/23 09:05:22;;;;;;;10.00;9.20;;;27.60;70.50;;;;;;5094165;28;20431;-71
2023/06/23 09:07:51;;;;;;;10.70;9.60;;;27.90;68.60;;;;;;5094039;28;20444;-71
2023/06/23 09:10:18;;;;;;;12.07;10.77;;;28.30;68.40;;;;;;5094081;28;20450;-71
2023/06/23 09:13:13;;;;;;;10.17;9.23;;;28.50;67.10;;;;;;5093747;28;20593;-71
2023/06/23 09:15:42;;;;;;;10.30;9.40;;;28.60;63.60;;;;;;5093877;28;20451;-71
2023/06/23 09:18:09;;;;;;;11.80;9.77;;;28.90;65.10;;;;;;5093951;28;20451;-71
2023/06/23 09:20:38;;;;;;;12.20;8.77;;;29.20;62.20;;;;;;5098270;28;20454;-70
2023/06/23 09:23:07;;;;;;;11.80;10.60;;;28.90;59.50;;;;;;5094510;28;20463;-71
2023/06/23 09:25:41;;;;;;;12.10;11.00;;;28.70;59.00;;;;;;5094152;28;20522;-71
2023/06/23 09:28:08;;;;;;;9.57;8.70;;;28.70;60.50;;;;;;5094117;28;20542;-71
2023/06/23 09:30:36;;;;;;;7.80;7.10;;;28.60;60.90;;;;;;5093560;28;20443;-71
2023/06/23 09:33:05;;;;;;;8.70;7.87;;;28.70;63.70;;;;;;5093444;28;20984;-71
2023/06/23 09:35:32;;;;;;;8.67;7.87;;;28.80;60.50;;;;;;5093741;28;20530;-71
2023/06/23 09:38:02;;;;;;;6.83;6.23;;;28.90;59.00;;;;;;5093229;28;20451;-71
2023/06/23 09:40:30;;;;;;;6.83;6.27;;;29.10;58.20;;;;;;5092515;28;20811;-70
2023/06/23 09:42:58;;;;;;;6.20;5.70;;;28.90;57.10;;;;;;5102641;28;20472;-71
2023/06/23 09:45:25;;;;;;;9.20;6.30;;;29.10;56.00;;;;;;5098006;28;20467;-71
2023/06/23 09:47:52;;;;;;;8.00;7.20;;;29.30;53.50;;;;;;5098687;28;20455;-69
2023/06/23 09:50:22;;;;;;;8.37;7.33;;;29.50;54.80;;;;;;5094802;28;20534;-68
2023/06/23 09:53:01;;;;;;;8.67;7.70;;;29.50;54.20;;;;;;5094856;28;20460;-69
2023/06/23 09:55:31;;;;;;;8.43;7.63;;;29.30;53.90;;;;;;5092604;28;20525;-68
2023/06/23 09:57:59;;;;;;;7.40;6.80;;;29.20;56.10;;;;;;5094205;28;20463;-69
2023/06/23 10:00:33;;;;;;;7.50;6.70;;;29.30;54.00;;;;;;5094911;28;20474;-70
2023/06/23 10:03:00;;;;;;;6.43;5.63;;;29.30;54.70;;;;;;5094597;28;20842;-72
2023/06/23 10:05:33;;;;;;;5.87;5.27;;;29.60;54.80;;;;;;5094414;28;21019;-71
2023/06/23 10:08:08;;;;;;;8.20;6.57;;;30.00;53.10;;;;;;5093725;28;20469;-72
2023/06/23 10:10:42;;;;;;;8.53;4.97;;;30.30;49.80;;;;;;5097965;28;20419;-71
2023/06/23 10:13:09;;;;;;;6.60;6.00;;;30.20;47.80;;;;;;5100164;28;20459;-71
2023/06/23 10:15:36;;;;;;;7.10;6.40;;;30.40;48.20;;;;;;5099953;28;20486;-72
2023/06/23 10:18:03;;;;;;;5.80;5.37;;;30.60;48.50;;;;;;5099123;28;21033;-72
2023/06/23 10:20:30;;;;;;;7.50;6.00;;;31.00;47.70;;;;;;5098846;28;20443;-71
2023/06/23 10:22:58;;;;;;;6.17;5.67;;;31.20;46.30;;;;;;5096628;28;20475;-71
2023/06/23 10:25:26;;;;;;;5.63;5.13;;;31.20;45.70;;;;;;5096987;28;20808;-71
2023/06/23 10:27:57;;;;;;;5.70;5.20;;;31.20;46.30;;;;;;5096639;28;20459;-72
2023/06/23 10:30:24;;;;;;;5.47;5.07;;;31.80;46.60;;;;;;5097164;28;20427;-71
2023/06/23 10:32:55;;;;;;;4.43;4.10;;;32.30;44.00;;;;;;5096825;28;20499;-71
2023/06/23 10:35:22;;;;;;;5.87;3.97;;;32.50;39.20;;;;;;5095836;28;20536;-71
2023/06/23 10:37:52;;;;;;;4.73;4.43;;;33.00;40.30;;;;;;5095206;28;20454;-72
2023/06/23 10:40:24;;;;;;;3.67;3.27;;;33.40;37.90;;;;;;5094544;28;20450;-72
2023/06/23 10:42:53;;;;;;;4.43;4.03;;;33.90;37.10;;;;;;5094365;28;20999;-71
2023/06/23 10:45:21;;;;;;;6.33;4.30;;;34.40;35.80;;;;;;5093904;28;20439;-72
2023/06/23 10:47:49;;;;;;;4.80;4.40;;;34.90;36.50;;;;;;5093587;28;20447;-69
2023/06/23 10:50:16;;;;;;;4.20;3.90;;;35.50;34.40;;;;;;5096858;28;20454;-69
2023/06/23 10:52:43;;;;;;;3.97;3.67;;;36.10;32.90;;;;;;5097535;28;20598;-69
2023/06/23 10:55:37;;;;;;;4.10;3.73;;;36.60;32.00;;;;;;5097044;28;20270;-70
2023/06/23 10:58:16;;;;;;;5.13;3.60;;;37.30;30.00;;;;;;5086330;28;20233;-70
2023/06/23 11:00:59;;;;;;;4.38;4.07;;;37.80;28.40;;;;;;5097164;28;20229;-70
2023/06/23 11:03:29;;;;;;;3.92;3.63;;;38.40;28.20;;;;;;5097006;28;20221;-69
2023/06/23 11:05:57;;;;;;;3.90;3.53;;;38.90;28.40;;;;;;5096738;28;20193;-70
2023/06/23 11:08:31;;;;;;;5.20;3.50;;;39.40;27.50;;;;;;5096163;28;20212;-70
2023/06/23 11:11:00;;;;;;;5.57;3.58;;;39.70;25.10;;;;;;5096641;28;20211;-70
2023/06/23 11:13:41;;;;;;;4.18;3.78;;;40.00;26.00;;;;;;5096482;28;20221;-70
2023/06/23 11:16:14;;;;;;;3.15;2.95;;;40.20;24.80;;;;;;5095392;28;20212;-71
2023/06/23 11:18:49;;;;;;;4.35;3.95;;;40.50;25.50;;;;;;5095129;28;20213;-71
2023/06/23 11:21:18;;;;;;;3.40;3.17;;;40.70;24.50;;;;;;5096450;28;20189;-69
2023/06/23 11:24:07;;;;;;;3.60;3.30;;;41.00;23.60;;;;;;5096306;28;20252;-70
2023/06/23 11:26:34;;;;;;;3.38;3.17;;;41.40;24.00;;;;;;5096743;28;20279;-70
2023/06/23 11:29:01;;;;;;;4.72;3.75;;;41.60;23.50;;;;;;5096348;28;20205;-71
2023/06/23 11:31:29;;;;;;;3.53;2.97;;;41.90;23.50;;;;;;5095665;28;20609;-70
2023/06/23 11:34:01;;;;;;;4.88;3.10;;;42.20;23.00;;;;;;5095854;28;20217;-70
2023/06/23 11:36:29;;;;;;;3.55;3.17;;;42.40;23.80;;;;;;5096344;28;20182;-71
2023/06/23 11:38:57;;;;;;;3.50;3.20;;;42.90;23.50;;;;;;5095334;28;20229;-71
2023/06/23 11:41:26;;;;;;;3.17;2.63;;;43.20;22.20;;;;;;5096199;28;20208;-70
2023/06/23 11:43:57;;;;;;;2.38;2.22;;;43.50;22.50;;;;;;5095813;28;20221;-70
2023/06/23 11:46:24;;;;;;;4.28;2.80;;;43.80;22.90;;;;;;5095465;28;20205;-71
2023/06/23 11:48:53;;;;;;;3.15;2.95;;;43.90;21.70;;;;;;5077883;28;20197;-69
2023/06/23 11:51:21;;;;;;;2.78;2.58;;;44.20;21.70;;;;;;5095244;28;20201;-71
2023/06/23 11:53:50;;;;;;;2.90;2.63;;;44.60;21.80;;;;;;5095467;28;20638;-70
2023/06/23 11:56:18;;;;;;;2.75;2.50;;;45.00;21.30;;;;;;5103908;28;20217;-71
2023/06/23 11:58:50;;;;;;;3.10;2.90;;;45.20;18.90;;;;;;5100360;28;20201;-71
2023/06/23 12:01:17;;;;;;;3.50;2.20;;;45.20;19.10;;;;;;5098834;28;20189;-70
2023/06/23 12:03:46;;;;;;;2.70;2.50;;;45.20;19.50;;;;;;5096707;28;20227;-70
2023/06/23 12:06:16;;;;;;;2.47;2.28;;;45.30;19.60;;;;;;5095767;28;20202;-71
2023/06/23 12:08:43;;;;;;;2.63;2.42;;;45.20;18.00;;;;;;5095938;28;20207;-71
2023/06/23 12:11:10;;;;;;;2.28;2.17;;;44.90;18.80;;;;;;5095734;28;20208;-70
2023/06/23 12:13:38;;;;;;;2.92;2.10;;;44.90;20.10;;;;;;5103840;28;20221;-70
2023/06/23 12:16:06;;;;;;;2.63;2.42;;;45.00;19.10;;;;;;5095432;28;20213;-71
2023/06/23 12:18:33;;;;;;;3.25;2.95;;;45.30;19.30;;;;;;5095127;28;20220;-70
2023/06/23 12:21:00;;;;;;;2.60;2.40;;;45.60;18.40;;;;;;5095317;28;20205;-71
2023/06/23 12:23:33;;;;;;;3.58;2.25;;;45.60;18.40;;;;;;5095332;28;20256;-71
2023/06/23 12:26:00;;;;;;;2.60;2.40;;;45.40;19.10;;;;;;5095076;28;20201;-71
2023/06/23 12:28:31;;;;;;;5.22;2.78;;;44.60;18.60;;;;;;5095501;28;20217;-71
2023/06/23 12:30:58;;;;;;;2.70;2.50;;;44.10;19.70;;;;;;5095169;28;20284;-71
2023/06/23 12:33:27;;;;;;;2.72;2.53;;;44.00;19.00;;;;;;5095063;28;20229;-70
2023/06/23 12:35:59;;;;;;;3.53;2.90;;;43.80;18.70;;;;;;5095984;28;20216;-70
2023/06/23 12:38:26;;;;;;;3.25;3.05;;;43.80;19.80;;;;;;5095590;28;20231;-71
2023/06/23 12:40:55;;;;;;;3.40;3.20;;;43.70;19.70;;;;;;5095457;28;20201;-71
2023/06/23 12:43:22;;;;;;;3.88;3.00;;;43.10;20.90;;;;;;5095102;28;20221;-70
2023/06/23 12:45:52;;;;;;;3.63;3.10;;;42.90;20.90;;;;;;5094698;28;20247;-71